Time;durP1;ratioP1;P1;durP2;ratioP2;P2;SDS_P1;SDS_P2;PMS_P1;PMS_P2;Temp;Humidity;BMP_temperature;BMP_pressure;BME280_temperature;BME280_humidity;BME280_pressure;Samples;Min_cycle;Max_cycle;Signal;HPM_P1;HPM_P2
2022/04/19 00:00:19;;;;;;;3.40;3.10;;;;;;;4.07;100.00;95978.22;5031749;28;102389;-65
2022/04/19 00:02:47;;;;;;;4.23;3.67;;;;;;;4.12;100.00;95978.34;5030110;28;105049;-65
2022/04/19 00:05:16;;;;;;;4.27;3.00;;;;;;;3.93;100.00;95982.03;5030381;28;101839;-65
2022/04/19 00:07:44;;;;;;;3.30;3.03;;;;;;;4.02;100.00;95970.16;5030402;28;105087;-65
2022/04/19 00:10:12;;;;;;;4.33;3.43;;;;;;;3.73;100.00;95971.72;5034869;28;103163;-65
2022/04/19 00:12:39;;;;;;;3.60;3.30;;;;;;;3.85;100.00;95969.16;5030373;28;105242;-65
2022/04/19 00:15:08;;;;;;;4.47;3.43;;;;;;;3.91;100.00;95969.09;5029500;28;105780;-65
2022/04/19 00:17:35;;;;;;;3.80;3.40;;;;;;;3.82;100.00;95965.13;5030049;28;101835;-65
2022/04/19 00:20:04;;;;;;;4.20;3.30;;;;;;;3.91;100.00;95966.47;5030509;28;103581;-65
2022/04/19 00:22:33;;;;;;;4.00;3.57;;;;;;;3.86;100.00;95963.69;5029782;28;105286;-65
2022/04/19 00:25:01;;;;;;;3.80;3.50;;;;;;;3.97;100.00;95954.25;5029847;28;102022;-65
2022/04/19 00:27:28;;;;;;;3.77;3.20;;;;;;;4.07;100.00;95952.72;5029694;28;104969;-65
2022/04/19 00:29:55;;;;;;;2.90;2.40;;;;;;;4.18;100.00;95951.16;5033073;28;105347;-65
2022/04/19 00:32:23;;;;;;;2.60;2.27;;;;;;;4.24;100.00;95958.97;5031385;27;102301;-65
2022/04/19 00:34:51;;;;;;;3.10;2.70;;;;;;;4.33;100.00;95946.31;5029696;28;105036;-65
2022/04/19 00:37:18;;;;;;;2.97;2.53;;;;;;;4.36;100.00;95941.41;5029883;28;101887;-65
2022/04/19 00:39:47;;;;;;;2.70;2.50;;;;;;;4.36;100.00;95933.50;5029930;28;104956;-65
2022/04/19 00:42:14;;;;;;;3.20;2.70;;;;;;;4.35;100.00;95934.53;5029506;28;105051;-65
2022/04/19 00:44:41;;;;;;;3.20;2.90;;;;;;;4.33;100.00;95926.09;5029601;28;101955;-65
2022/04/19 00:47:09;;;;;;;2.50;2.30;;;;;;;4.23;100.00;95925.81;5031406;28;102807;-65
2022/04/19 00:49:42;;;;;;;3.07;2.87;;;;;;;4.23;100.00;95925.81;5029318;28;105112;-65
2022/04/19 00:52:11;;;;;;;3.00;2.70;;;;;;;4.19;100.00;95924.63;5033414;28;102262;-65
2022/04/19 00:54:43;;;;;;;2.57;2.37;;;;;;;4.11;100.00;95926.75;5029169;28;105495;-65
2022/04/19 00:57:16;;;;;;;3.00;2.80;;;;;;;4.03;100.00;95919.97;5029593;28;101752;-65
2022/04/19 00:59:47;;;;;;;2.80;2.60;;;;;;;3.80;100.00;95917.22;5029623;28;104810;-65
2022/04/19 01:02:14;;;;;;;2.77;2.40;;;;;;;3.52;100.00;95916.94;5029130;28;105142;-65
2022/04/19 01:04:41;;;;;;;3.10;2.80;;;;;;;3.09;100.00;95918.75;5029742;28;101785;-65
2022/04/19 01:07:11;;;;;;;2.70;2.50;;;;;;;3.12;100.00;95914.88;5029564;28;105301;-65
2022/04/19 01:09:39;;;;;;;3.53;2.70;;;;;;;3.38;100.00;95914.66;5029138;28;104849;-65
2022/04/19 01:14:55;;;;;;;3.13;2.30;;;;;;;3.54;100.00;95914.88;5032197;28;105345;-65
2022/04/19 01:17:25;;;;;;;2.83;2.33;;;;;;;3.50;100.00;95910.28;5029466;28;102236;-65
2022/04/19 01:19:53;;;;;;;2.70;2.50;;;;;;;3.49;100.00;95900.78;5029575;28;105396;-65
2022/04/19 01:22:24;;;;;;;2.97;2.47;;;;;;;3.44;100.00;95905.91;5028604;28;105102;-65
2022/04/19 01:24:51;;;;;;;2.80;2.60;;;;;;;3.36;100.00;95903.53;5029217;28;102008;-65
2022/04/19 01:27:18;;;;;;;2.70;2.50;;;;;;;3.32;100.00;95899.72;5029099;28;105208;-65
2022/04/19 01:29:48;;;;;;;4.23;2.90;;;;;;;3.03;100.00;95892.53;5028758;28;105757;-65
2022/04/19 01:32:17;;;;;;;3.17;2.87;;;;;;;2.87;100.00;95893.06;5029119;28;102007;-65
2022/04/19 01:34:44;;;;;;;2.93;2.70;;;;;;;2.89;100.00;95896.31;5029307;28;104817;-65
2022/04/19 01:37:19;;;;;;;3.10;2.80;;;;;;;3.00;100.00;95891.13;5031301;27;105340;-65
2022/04/19 01:42:37;;;;;;;2.97;2.77;;;;;;;3.10;100.00;95888.84;5028586;28;105660;-65
2022/04/19 01:45:05;;;;;;;3.33;3.03;;;;;;;3.06;100.00;95886.88;5028552;28;102132;-65
2022/04/19 01:47:32;;;;;;;2.93;2.67;;;;;;;3.00;100.00;95890.34;5028813;28;104435;-65
2022/04/19 01:50:01;;;;;;;3.20;2.90;;;;;;;2.89;100.00;95885.81;5028403;28;105047;-65
2022/04/19 01:52:30;;;;;;;3.40;2.93;;;;;;;2.75;100.00;95881.66;5012447;28;102053;-65
2022/04/19 01:55:01;;;;;;;4.40;3.30;;;;;;;2.80;100.00;95880.00;5028889;28;104939;-65
2022/04/19 01:57:33;;;;;;;3.70;2.60;;;;;;;2.93;100.00;95879.09;5027783;28;104942;-65
2022/04/19 02:00:00;;;;;;;3.40;3.10;;;;;;;2.86;100.00;95883.59;5032340;28;101856;-65
2022/04/19 02:02:48;;;;;;;3.60;2.63;;;;;;;2.75;100.00;95882.47;5026589;28;103664;-65
2022/04/19 02:05:20;;;;;;;2.70;2.50;;;;;;;2.73;100.00;95881.88;5028640;28;101771;-65
2022/04/19 02:07:48;;;;;;;3.67;3.37;;;;;;;2.72;100.00;95887.34;5028768;28;104599;-65
2022/04/19 02:10:19;;;;;;;3.40;3.10;;;;;;;2.81;100.00;95879.00;5011384;28;105364;-65
2022/04/19 02:12:51;;;;;;;3.20;2.80;;;;;;;2.95;100.00;95871.81;5028743;28;101888;-65
2022/04/19 02:15:36;;;;;;;3.03;2.73;;;;;;;3.03;100.00;95874.97;5027049;27;102201;-65
2022/04/19 02:18:12;;;;;;;3.80;3.50;;;;;;;3.02;100.00;95872.53;5028032;28;104674;-65
2022/04/19 02:20:40;;;;;;;3.07;2.73;;;;;;;3.09;100.00;95873.28;5028332;28;102523;-65
2022/04/19 02:23:08;;;;;;;3.03;2.80;;;;;;;3.25;100.00;95868.28;5031480;28;105777;-65
2022/04/19 02:25:37;;;;;;;3.30;3.00;;;;;;;3.32;100.00;95870.81;5028560;28;101895;-65
2022/04/19 02:28:10;;;;;;;3.43;3.03;;;;;;;3.18;100.00;95867.53;5028746;28;105119;-65
2022/04/19 02:30:42;;;;;;;3.60;3.30;;;;;;;3.38;100.00;95856.84;5027921;28;103878;-65
2022/04/19 02:33:14;;;;;;;3.30;3.00;;;;;;;3.31;100.00;95871.84;5028694;28;102058;-65
2022/04/19 02:35:42;;;;;;;4.17;3.00;;;;;;;3.43;100.00;95868.28;5028123;28;105097;-65
2022/04/19 02:38:11;;;;;;;3.23;2.93;;;;;;;3.47;100.00;95856.31;5027832;28;105315;-65
2022/04/19 02:40:52;;;;;;;3.40;3.10;;;;;;;3.58;100.00;95863.47;5028248;28;101767;-65
2022/04/19 02:43:19;;;;;;;3.47;3.20;;;;;;;3.51;100.00;95861.94;5031182;28;104757;-65
2022/04/19 02:45:54;;;;;;;4.50;3.00;;;;;;;3.37;100.00;95857.84;5028215;28;102333;-65
2022/04/19 02:48:30;;;;;;;3.53;3.23;;;;;;;3.42;100.00;95850.91;5028113;27;105191;-65
2022/04/19 02:50:58;;;;;;;3.90;3.13;;;;;;;3.54;100.00;95851.78;5031169;28;105171;-65
2022/04/19 02:53:25;;;;;;;3.37;2.90;;;;;;;3.57;100.00;95846.09;5031905;28;101839;-65
2022/04/19 02:55:53;;;;;;;3.43;3.13;;;;;;;3.68;100.00;95848.00;5031076;28;103922;-65
2022/04/19 02:58:20;;;;;;;3.70;3.40;;;;;;;3.61;100.00;95849.88;5030936;28;104967;-65
2022/04/19 03:00:49;;;;;;;3.87;3.47;;;;;;;3.63;100.00;95853.09;5014879;28;101764;-65
2022/04/19 03:03:16;;;;;;;3.47;3.00;;;;;;;3.69;100.00;95848.78;5033373;28;102363;-65
2022/04/19 03:05:43;;;;;;;3.00;2.70;;;;;;;3.75;100.00;95843.44;5035682;27;103028;-65
2022/04/19 03:08:10;;;;;;;3.10;2.80;;;;;;;3.72;100.00;95843.09;5031416;28;105124;-65
2022/04/19 03:10:37;;;;;;;3.63;3.30;;;;;;;3.61;100.00;95846.47;5030654;28;105535;-65
2022/04/19 03:13:06;;;;;;;3.93;3.00;;;;;;;3.58;100.00;95847.69;5031339;28;101922;-65
2022/04/19 03:15:38;;;;;;;3.20;2.90;;;;;;;3.58;100.00;95844.25;5031368;28;105339;-65
2022/04/19 03:18:06;;;;;;;3.10;2.80;;;;;;;3.51;100.00;95840.91;5031223;28;101848;-65
2022/04/19 03:20:36;;;;;;;3.17;2.93;;;;;;;3.47;100.00;95843.19;5031069;28;101900;-65
2022/04/19 03:28:49;;;;;;;2.80;2.50;;;;;;;3.69;100.00;95838.25;5034590;28;101806;-65
2022/04/19 03:31:17;;;;;;;3.30;3.00;;;;;;;3.66;100.00;95841.34;5030286;28;105462;-65
2022/04/19 03:33:46;;;;;;;4.10;3.77;;;;;;;3.66;100.00;95839.50;5031039;28;101889;-65
2022/04/19 03:36:13;;;;;;;5.17;4.33;;;;;;;3.61;100.00;95833.31;5031146;28;104868;-65
2022/04/19 03:38:40;;;;;;;5.30;4.47;;;;;;;3.60;100.00;95831.72;5030051;28;105910;-65
2022/04/19 03:41:07;;;;;;;5.17;4.63;;;;;;;3.60;100.00;95826.47;5030969;28;102031;-65
2022/04/19 03:43:34;;;;;;;6.73;4.90;;;;;;;3.46;100.00;95832.88;5030967;28;105343;-65
2022/04/19 03:46:03;;;;;;;4.57;4.17;;;;;;;3.41;100.00;95819.59;5030111;28;105041;-65
2022/04/19 03:48:32;;;;;;;4.63;4.23;;;;;;;3.49;100.00;95819.31;5030694;28;101873;-65
2022/04/19 03:51:00;;;;;;;4.53;4.13;;;;;;;3.45;100.00;95826.03;5035176;27;102350;-65
2022/04/19 03:53:27;;;;;;;4.37;3.97;;;;;;;3.37;100.00;95823.69;5014143;28;101984;-65
2022/04/19 03:55:54;;;;;;;5.20;4.20;;;;;;;3.27;100.00;95824.19;5030356;28;105609;-65
2022/04/19 03:58:23;;;;;;;5.13;4.43;;;;;;;3.29;100.00;95829.22;5030037;28;105781;-65
2022/04/19 04:00:51;;;;;;;5.07;4.23;;;;;;;3.35;100.00;95825.72;5029352;28;102161;-65
2022/04/19 04:03:21;;;;;;;4.87;3.93;;;;;;;3.34;100.00;95824.91;5030834;28;105244;-65
2022/04/19 04:05:50;;;;;;;5.87;4.03;;;;;;;3.31;100.00;95829.81;5029886;28;105234;-65
2022/04/19 04:08:17;;;;;;;3.90;3.37;;;;;;;3.21;100.00;95824.25;5030492;28;102024;-65
2022/04/19 04:10:51;;;;;;;3.20;3.00;;;;;;;3.29;100.00;95831.88;5030752;28;103813;-65
2022/04/19 04:13:20;;;;;;;3.53;3.20;;;;;;;3.20;100.00;95839.22;5033098;28;105030;-65
2022/04/19 04:15:47;;;;;;;3.90;3.50;;;;;;;3.05;100.00;95827.44;5030365;28;105006;-65
2022/04/19 04:18:14;;;;;;;3.60;3.30;;;;;;;3.06;100.00;95837.75;5029935;28;103876;-65
2022/04/19 04:20:45;;;;;;;3.50;3.20;;;;;;;3.18;100.00;95828.13;5030208;28;101854;-65
2022/04/19 04:23:12;;;;;;;3.60;3.30;;;;;;;3.13;100.00;95829.81;5030277;28;105252;-65
2022/04/19 04:25:39;;;;;;;3.73;3.43;;;;;;;3.09;100.00;95837.31;5029563;28;105629;-65
2022/04/19 04:28:07;;;;;;;5.53;4.57;;;;;;;2.96;100.00;95831.41;5031514;27;102030;-65
2022/04/19 04:30:43;;;;;;;5.57;5.07;;;;;;;2.90;100.00;95829.63;5044509;27;105265;-65
2022/04/19 04:33:10;;;;;;;5.90;3.67;;;;;;;2.93;100.00;95831.81;5009614;28;105275;-65
2022/04/19 04:35:37;;;;;;;5.33;3.90;;;;;;;2.92;100.00;95824.97;5047039;27;101948;-65
2022/04/19 04:38:06;;;;;;;5.17;3.43;;;;;;;2.96;100.00;95826.16;5008948;28;104965;-65
2022/04/19 04:40:35;;;;;;;3.83;3.07;;;;;;;3.04;100.00;95829.28;5009886;28;101677;-65
2022/04/19 04:43:12;;;;;;;5.83;3.30;;;;;;;3.07;100.00;95828.06;5028154;27;105224;-65
2022/04/19 04:45:40;;;;;;;4.43;3.27;;;;;;;3.10;100.00;95823.16;5009147;28;104962;-65
2022/04/19 04:50:55;;;;;;;4.57;3.00;;;;;;;3.24;100.00;95822.03;5009430;28;104805;-65
2022/04/19 04:53:23;;;;;;;5.10;2.90;;;;;;;3.34;100.00;95818.88;5009207;28;104006;-65
2022/04/19 04:56:16;;;;;;;4.57;3.50;;;;;;;3.45;100.00;95821.56;5013467;28;103340;-65
2022/04/19 04:58:43;;;;;;;4.60;3.30;;;;;;;3.47;100.00;95818.72;5009152;28;105108;-65
2022/04/19 05:01:10;;;;;;;4.77;3.40;;;;;;;3.58;100.00;95821.41;5009382;28;102004;-65
2022/04/19 05:03:38;;;;;;;3.30;3.00;;;;;;;3.56;100.00;95817.41;5009467;28;103845;-65
2022/04/19 05:06:06;;;;;;;3.97;3.27;;;;;;;3.54;100.00;95815.00;5008525;28;105352;-65
2022/04/19 05:08:35;;;;;;;3.50;3.20;;;;;;;3.68;100.00;95816.44;5009343;28;101886;-65
2022/04/19 05:11:03;;;;;;;6.07;3.60;;;;;;;3.77;100.00;95809.06;5009391;28;105205;-65
2022/04/19 05:13:31;;;;;;;7.20;3.63;;;;;;;3.89;100.00;95815.16;4992243;28;104568;-65
2022/04/19 05:15:59;;;;;;;4.40;3.27;;;;;;;4.05;100.00;95809.28;5008991;28;101740;-65
2022/04/19 05:18:32;;;;;;;4.90;3.27;;;;;;;4.21;100.00;95811.28;5011965;28;104820;-65
2022/04/19 05:20:58;;;;;;;3.40;3.07;;;;;;;4.22;100.00;95808.41;5009248;28;102008;-65
2022/04/19 05:23:26;;;;;;;4.77;3.43;;;;;;;4.40;100.00;95810.97;5009438;28;104823;-65
2022/04/19 05:25:55;;;;;;;6.10;3.10;;;;;;;4.48;100.00;95807.22;5008496;28;105609;-65
2022/04/19 05:28:22;;;;;;;4.30;3.40;;;;;;;4.44;100.00;95811.31;5009074;28;102089;-65
2022/04/19 05:30:55;;;;;;;4.70;2.90;;;;;;;4.55;100.00;95807.91;5009403;28;104929;-65
2022/04/19 05:33:22;;;;;;;5.40;3.00;;;;;;;4.59;100.00;95809.84;5008388;28;105442;-65
2022/04/19 05:35:48;;;;;;;6.93;2.90;;;;;;;4.63;100.00;95810.22;5008819;28;101953;-65
2022/04/19 05:38:16;;;;;;;5.00;2.80;;;;;;;4.75;100.00;95818.94;5042659;27;105053;-65
2022/04/19 05:40:44;;;;;;;4.07;2.80;;;;;;;4.78;100.00;95810.56;5011703;28;105150;-65
2022/04/19 05:43:12;;;;;;;2.80;2.53;;;;;;;4.79;100.00;95809.53;5008727;28;105509;-65
2022/04/19 05:45:42;;;;;;;4.07;2.77;;;;;;;4.81;100.00;95815.38;5008257;28;105164;-65
2022/04/19 05:48:10;;;;;;;4.83;2.60;;;;;;;5.03;100.00;95819.06;5009065;28;101922;-65
2022/04/19 05:50:37;;;;;;;7.17;2.43;;;;;;;5.18;100.00;95817.53;5008527;28;104757;-65
2022/04/19 05:53:06;;;;;;;3.07;2.20;;;;;;;5.15;100.00;95815.38;5008210;28;104620;-65
2022/04/19 05:55:34;;;;;;;6.83;2.77;;;;;;;5.22;100.00;95820.50;5008739;28;102196;-65
2022/04/19 05:58:02;;;;;;;3.13;2.70;;;;;;;5.40;100.00;95818.53;5008645;28;104917;-65
2022/04/19 06:00:31;;;;;;;4.83;2.90;;;;;;;5.63;100.00;95815.84;5007644;28;105353;-65
2022/04/19 06:05:44;;;;;;;3.77;2.47;;;;;;;5.60;100.00;95815.53;5008105;28;105569;-65
2022/04/19 06:08:12;;;;;;;4.60;2.67;;;;;;;5.71;100.00;95815.50;5008643;28;102026;-65
2022/04/19 06:10:40;;;;;;;3.27;2.90;;;;;;;5.79;100.00;95811.69;5008465;28;105710;-65
2022/04/19 06:13:08;;;;;;;5.67;2.60;;;;;;;5.78;100.00;95810.09;5007793;28;104214;-65
2022/04/19 06:15:39;;;;;;;3.67;2.80;;;;;;;5.91;100.00;95820.41;5008473;28;101952;-65
2022/04/19 06:18:08;;;;;;;3.30;2.40;;;;;;;5.96;100.00;95817.88;5008327;28;103540;-65
2022/04/19 06:20:53;;;;;;;3.00;2.70;;;;;;;6.05;100.00;95821.75;5007618;28;105090;-65
2022/04/19 06:23:20;;;;;;;3.27;2.87;;;;;;;6.15;100.00;95821.91;5007827;28;101863;-65
2022/04/19 06:25:50;;;;;;;5.03;3.10;;;;;;;6.11;100.00;95821.56;5011041;28;104964;-65
2022/04/19 06:28:19;;;;;;;7.47;2.77;;;;;;;6.24;100.00;95821.31;5008326;28;101835;-65
2022/04/19 06:31:07;;;;;;;2.40;2.20;;;;;;;6.35;100.00;95824.91;5010182;28;102149;-64
2022/04/19 06:33:34;;;;;;;3.77;2.53;;;;;;;6.51;100.00;95826.78;5007158;28;105272;-65
2022/04/19 06:36:03;;;;;;;3.40;2.53;;;;;;;6.54;100.00;95821.03;5008166;28;101866;-65
2022/04/19 06:38:31;;;;;;;4.47;2.37;;;;;;;6.73;100.00;95825.03;5008102;28;105006;-65
2022/04/19 06:41:00;;;;;;;2.30;2.07;;;;;;;6.85;100.00;95823.13;5007467;28;104963;-65
2022/04/19 06:43:31;;;;;;;4.57;2.30;;;;;;;6.89;100.00;95819.78;5041477;27;102052;-65
2022/04/19 06:46:15;;;;;;;4.33;2.53;;;;;;;7.07;100.00;95816.06;5007879;28;104885;-65
2022/04/19 06:48:47;;;;;;;3.67;2.93;;;;;;;7.29;100.00;95814.25;5010630;28;101842;-64
2022/04/19 06:51:14;;;;;;;3.23;2.40;;;;;;;7.45;100.00;95818.72;5008082;28;104918;-65
2022/04/19 06:53:41;;;;;;;5.40;2.37;;;;;;;7.63;100.00;95818.44;5007088;28;105049;-65
2022/04/19 06:56:19;;;;;;;2.60;2.40;;;;;;;7.61;100.00;95820.50;5007669;28;101993;-65
2022/04/19 06:58:46;;;;;;;4.00;2.57;;;;;;;7.25;100.00;95813.16;5007940;28;104944;-65
2022/04/19 07:01:16;;;;;;;4.60;2.90;;;;;;;7.14;100.00;95822.78;4990200;28;105682;-65
2022/04/19 07:03:46;;;;;;;4.90;2.60;;;;;;;7.23;100.00;95821.34;5041132;27;101987;-65
2022/04/19 07:06:41;;;;;;;3.77;2.77;;;;;;;7.45;100.00;95813.41;5007789;28;105087;-65
2022/04/19 07:09:07;;;;;;;4.93;2.60;;;;;;;7.55;100.00;95817.00;5010650;28;105179;-65
2022/04/19 07:11:37;;;;;;;4.10;2.30;;;;;;;7.38;100.00;95818.09;5007824;28;104947;-65
2022/04/19 07:14:17;;;;;;;4.97;3.00;;;;;;;7.49;100.00;95818.00;5006845;28;105080;-65
2022/04/19 07:17:02;;;;;;;2.50;2.30;;;;;;;7.30;100.00;95821.16;5005861;28;101763;-65
2022/04/19 07:26:37;;;;;;;4.23;2.80;;;;;;;7.40;100.00;95818.63;5007723;28;103713;-65
2022/04/19 07:28:00;;;;;;;2.67;2.47;;;;;;;7.58;100.00;95816.50;5007538;28;104799;-64
2022/04/19 07:30:29;;;;;;;3.67;2.40;;;;;;;7.66;100.00;95821.38;5006989;28;105124;-65
2022/04/19 07:32:59;;;;;;;4.53;2.67;;;;;;;7.78;100.00;95821.25;5010905;28;101787;-64
2022/04/19 07:35:27;;;;;;;3.50;2.50;;;;;;;7.91;100.00;95823.53;5006867;28;105760;-65
2022/04/19 07:37:55;;;;;;;2.80;2.60;;;;;;;8.08;100.00;95825.06;5010474;28;101973;-64
2022/04/19 07:40:31;;;;;;;4.53;2.53;;;;;;;7.89;100.00;95830.91;5010879;28;105260;-65
2022/04/19 07:42:58;;;;;;;3.17;2.87;;;;;;;8.12;100.00;95833.31;5009289;28;106501;-64
2022/04/19 07:45:26;;;;;;;2.60;2.37;;;;;;;8.13;100.00;95833.06;5010627;28;101880;-64
2022/04/19 07:47:53;;;;;;;2.97;2.53;;;;;;;8.18;100.00;95830.47;5010310;28;104870;-64
2022/04/19 07:50:22;;;;;;;2.67;2.20;;;;;;;8.22;100.00;95834.25;5011559;28;103131;-64
2022/04/19 07:52:49;;;;;;;2.50;2.30;;;;;;;8.24;100.00;95826.84;5010645;28;101956;-64
2022/04/19 07:55:16;;;;;;;4.60;2.53;;;;;;;8.32;100.00;95830.91;5013166;28;105286;-65
2022/04/19 07:57:43;;;;;;;2.83;2.40;;;;;;;8.47;100.00;95828.41;5010356;28;102620;-64
2022/04/19 08:00:11;;;;;;;3.47;2.00;;;;;;;8.47;100.00;95823.13;5010518;28;105024;-64
2022/04/19 08:02:47;;;;;;;2.57;2.20;;;;;;;8.55;100.00;95828.75;5009825;28;104244;-64
2022/04/19 08:05:18;;;;;;;3.57;2.30;;;;;;;8.50;100.00;95826.06;5010415;28;101942;-64
2022/04/19 08:07:48;;;;;;;4.33;2.40;;;;;;;8.74;100.00;95824.69;5010272;28;105154;-65
2022/04/19 08:10:16;;;;;;;4.07;2.53;;;;;;;8.76;100.00;95813.81;5009938;28;105450;-65
2022/04/19 08:12:43;;;;;;;4.00;2.37;;;;;;;8.88;100.00;95811.81;5010070;28;101837;-64
2022/04/19 08:15:10;;;;;;;2.70;2.50;;;;;;;8.88;100.00;95814.47;5010187;28;104100;-64
2022/04/19 08:17:38;;;;;;;2.67;2.47;;;;;;;8.97;100.00;95813.75;5013134;28;105393;-65
2022/04/19 08:20:07;;;;;;;2.97;2.30;;;;;;;9.39;100.00;95811.88;5010189;28;104941;-65
2022/04/19 08:22:35;;;;;;;2.80;2.60;;;;;;;9.32;100.00;95811.31;5009584;28;104962;-65
2022/04/19 08:25:10;;;;;;;2.90;2.50;;;;;;;9.32;100.00;95816.63;5010020;28;101773;-64
2022/04/19 08:27:40;;;;;;;2.90;2.67;;;;;;;9.37;100.00;95807.94;5043693;27;105064;-64
2022/04/19 08:30:09;;;;;;;2.37;2.20;;;;;;;9.32;100.00;95802.59;5009472;28;105409;-65
2022/04/19 08:32:37;;;;;;;2.67;2.47;;;;;;;9.54;100.00;95800.59;5009799;28;102057;-64
2022/04/19 08:35:05;;;;;;;2.83;2.10;;;;;;;9.29;100.00;95798.59;5010174;28;103989;-64
2022/04/19 08:37:34;;;;;;;3.67;2.40;;;;;;;9.56;100.00;95795.81;5010657;28;103050;-65
2022/04/19 08:40:01;;;;;;;3.80;2.40;;;;;;;9.47;100.00;95792.84;5013379;28;102056;-64
2022/04/19 08:42:30;;;;;;;3.00;2.40;;;;;;;9.47;100.00;95792.03;5009484;28;105097;-65
2022/04/19 08:44:58;;;;;;;5.73;2.53;;;;;;;9.66;100.00;95795.88;5010910;28;101943;-65
2022/04/19 08:47:26;;;;;;;3.10;2.50;;;;;;;9.89;100.00;95798.88;5010565;28;102394;-64
2022/04/19 08:49:56;;;;;;;3.33;2.73;;;;;;;9.94;100.00;95793.59;5009307;28;104044;-64
2022/04/19 08:52:23;;;;;;;6.87;2.83;;;;;;;10.03;100.00;95801.88;5010864;28;101742;-65
2022/04/19 08:57:35;;;;;;;5.97;3.00;;;;;;;10.17;100.00;95808.28;5010126;28;102714;-64
2022/04/19 09:00:07;;;;;;;4.37;2.50;;;;;;;10.18;100.00;95807.22;5014498;28;101921;-64
2022/04/19 09:02:37;;;;;;;4.50;2.90;;;;;;;10.33;100.00;95804.63;5010400;28;102656;-64
2022/04/19 09:05:16;;;;;;;5.10;2.70;;;;;;;10.50;100.00;95797.19;5009462;28;102021;-64
2022/04/19 09:07:45;;;;;;;3.03;2.73;;;;;;;10.40;100.00;95798.00;5009242;28;105074;-64
2022/04/19 09:10:14;;;;;;;3.13;2.30;;;;;;;10.54;100.00;95799.09;5008630;28;104256;-64
2022/04/19 09:13:04;;;;;;;3.83;2.50;;;;;;;10.73;100.00;95802.00;5009443;28;101869;-64
2022/04/19 09:15:35;;;;;;;3.30;2.70;;;;;;;11.03;100.00;95800.19;5011024;28;102969;-64
2022/04/19 09:18:03;;;;;;;3.57;2.13;;;;;;;11.02;100.00;95801.22;5008914;28;104288;-64
2022/04/19 09:20:31;;;;;;;5.70;3.40;;;;;;;11.17;100.00;95798.56;5010699;28;102347;-65
2022/04/19 09:23:05;;;;;;;4.13;2.50;;;;;;;11.13;100.00;95802.03;5013426;28;102324;-64
2022/04/19 09:25:32;;;;;;;4.50;2.47;;;;;;;11.01;100.00;95809.50;5009250;28;101890;-64
2022/04/19 09:28:02;;;;;;;3.77;2.80;;;;;;;11.35;100.00;95808.63;5009010;28;104973;-65
2022/04/19 09:30:31;;;;;;;4.13;2.90;;;;;;;11.29;100.00;95807.06;5008233;28;102688;-65
2022/04/19 09:33:09;;;;;;;3.40;2.60;;;;;;;11.34;100.00;95803.59;5009111;28;102281;-64
2022/04/19 09:35:37;;;;;;;2.87;2.67;;;;;;;11.50;100.00;95805.16;5009127;28;106233;-64
2022/04/19 09:38:05;;;;;;;6.77;3.07;;;;;;;11.74;100.00;95803.53;5008186;28;105784;-65
2022/04/19 09:40:34;;;;;;;7.57;3.00;;;;;;;11.50;97.75;95813.16;5010304;28;101790;-64
2022/04/19 09:43:15;;;;;;;4.10;2.80;;;;;;;11.15;99.04;95803.34;5009003;28;103704;-64
2022/04/19 09:45:51;;;;;;;6.73;2.90;;;;;;;11.34;100.00;95801.72;5013169;28;102486;-64
2022/04/19 09:48:19;;;;;;;4.17;2.90;;;;;;;11.69;100.00;95801.69;5010041;28;102416;-64
2022/04/19 09:50:55;;;;;;;4.53;2.80;;;;;;;11.71;97.39;95801.38;5009473;28;102685;-64
2022/04/19 09:53:24;;;;;;;5.67;2.67;;;;;;;11.63;98.17;95791.31;5008780;28;101857;-64
2022/04/19 09:55:52;;;;;;;2.97;2.63;;;;;;;12.03;97.90;95786.63;5009543;28;102722;-65
2022/04/19 09:58:21;;;;;;;3.33;2.70;;;;;;;12.18;91.24;95793.75;5007153;28;103846;-64
2022/04/19 10:00:49;;;;;;;2.80;2.30;;;;;;;12.41;89.79;95793.91;5009476;28;101767;-64
2022/04/19 10:08:52;;;;;;;4.63;2.60;;;;;;;12.47;87.92;95791.97;4994601;28;101978;-64
2022/04/19 10:11:19;;;;;;;2.83;2.33;;;;;;;12.54;88.11;95784.50;5008005;28;102669;-65
2022/04/19 10:13:48;;;;;;;3.20;2.50;;;;;;;12.60;83.30;95786.81;5008305;28;101913;-64
2022/04/19 10:16:16;;;;;;;2.60;2.40;;;;;;;12.64;85.86;95781.75;5008333;28;103783;-64
2022/04/19 10:18:45;;;;;;;2.93;2.40;;;;;;;12.57;83.02;95787.41;4991146;28;105740;-64
2022/04/19 10:21:16;;;;;;;4.20;2.27;;;;;;;12.76;88.63;95777.63;5008189;28;102065;-64
2022/04/19 10:23:44;;;;;;;4.50;2.30;;;;;;;12.86;83.48;95768.78;5009845;28;102319;-64
2022/04/19 10:26:17;;;;;;;2.63;2.30;;;;;;;12.70;78.37;95769.97;5009121;28;103055;-64
2022/04/19 10:28:45;;;;;;;4.47;2.60;;;;;;;12.95;81.12;95767.91;5008400;28;102118;-64
2022/04/19 10:31:14;;;;;;;3.03;2.73;;;;;;;13.11;79.27;95760.56;5012461;28;103017;-64
2022/04/19 10:33:45;;;;;;;2.83;2.53;;;;;;;13.35;79.34;95761.44;5008249;28;101768;-64
2022/04/19 10:36:14;;;;;;;2.67;2.43;;;;;;;13.07;74.46;95760.34;5041854;27;105600;-64
2022/04/19 10:38:42;;;;;;;3.00;2.70;;;;;;;12.78;75.98;95758.69;5007614;28;105440;-64
2022/04/19 10:41:09;;;;;;;3.87;2.87;;;;;;;12.29;76.33;95757.97;5009375;28;102491;-64
2022/04/19 10:43:36;;;;;;;2.87;2.67;;;;;;;12.81;80.35;95742.91;5009797;28;102929;-64
2022/04/19 10:46:31;;;;;;;3.40;3.03;;;;;;;13.40;73.40;95737.34;5008639;28;101837;-64
2022/04/19 10:49:26;;;;;;;3.50;3.00;;;;;;;13.34;76.37;95735.78;5008107;28;101956;-64
2022/04/19 10:51:59;;;;;;;3.67;3.37;;;;;;;13.51;73.32;95738.81;5009610;28;102928;-64
2022/04/19 10:55:04;;;;;;;4.70;3.30;;;;;;;13.74;74.34;95732.69;5011060;28;102685;-64
2022/04/19 11:00:29;;;;;;;7.90;3.43;;;;;;;13.52;69.87;95727.06;5007092;28;105151;-64
2022/04/19 11:03:00;;;;;;;3.83;3.47;;;;;;;14.02;65.61;95729.09;5007867;28;101718;-64
2022/04/19 11:05:44;;;;;;;4.10;3.70;;;;;;;14.13;64.87;95727.88;5009472;28;102269;-64
2022/04/19 11:08:36;;;;;;;6.17;3.60;;;;;;;14.22;62.19;95718.19;5008629;28;103081;-64
2022/04/19 11:11:22;;;;;;;8.03;3.93;;;;;;;14.43;62.64;95714.09;5011440;28;101791;-64
2022/04/19 11:14:24;;;;;;;4.90;3.87;;;;;;;14.26;59.59;95719.16;5012647;28;102371;-64
2022/04/19 11:16:53;;;;;;;6.33;4.37;;;;;;;13.86;58.50;95712.47;5015567;28;102752;-64
2022/04/19 11:19:25;;;;;;;4.73;4.07;;;;;;;13.99;61.48;95718.97;5010935;28;105329;-65
2022/04/19 11:21:55;;;;;;;5.10;4.00;;;;;;;13.62;59.66;95710.91;5012316;28;102519;-64
2022/04/19 11:25:00;;;;;;;4.70;3.83;;;;;;;14.35;62.74;95706.75;5044744;27;101858;-64
2022/04/19 11:28:00;;;;;;;5.17;3.87;;;;;;;14.51;55.53;95702.75;5010977;28;104881;-64
2022/04/19 11:30:28;;;;;;;6.20;4.00;;;;;;;14.30;57.12;95701.47;5010010;28;105835;-64
2022/04/19 11:32:56;;;;;;;5.03;4.20;;;;;;;14.69;54.04;95692.03;5010906;28;101861;-64
2022/04/19 11:35:26;;;;;;;5.30;4.53;;;;;;;13.84;56.64;95695.13;5012245;28;102406;-64
2022/04/19 11:37:53;;;;;;;5.17;4.00;;;;;;;13.90;56.15;95688.66;5011394;28;102755;-64
2022/04/19 11:48:38;;;;;;;4.93;4.40;;;;;;;14.08;54.44;95679.84;5010758;28;105382;-64
2022/04/19 11:51:11;;;;;;;6.10;4.13;;;;;;;14.30;54.03;95680.88;4993442;28;105062;-64
2022/04/19 11:53:39;;;;;;;5.30;4.50;;;;;;;14.49;54.34;95670.16;5010319;28;101893;-64
2022/04/19 11:56:07;;;;;;;5.20;3.97;;;;;;;14.36;54.36;95677.03;5011428;28;102319;-64
2022/04/19 11:58:35;;;;;;;4.67;4.17;;;;;;;14.53;54.23;95661.25;5043709;27;105692;-64
2022/04/19 12:01:05;;;;;;;5.40;4.57;;;;;;;14.08;51.74;95666.47;5010259;28;101969;-64
2022/04/19 12:03:34;;;;;;;5.20;4.70;;;;;;;14.47;52.74;95662.41;5047109;27;104984;-64
2022/04/19 12:06:07;;;;;;;5.37;4.57;;;;;;;14.61;51.55;95657.13;5010417;28;101670;-64
2022/04/19 12:08:37;;;;;;;4.97;4.57;;;;;;;14.03;51.38;95656.66;5010276;28;103628;-64
2022/04/19 12:11:06;;;;;;;5.57;4.40;;;;;;;14.35;50.79;95653.25;5009740;28;105203;-64
2022/04/19 12:13:34;;;;;;;5.03;4.37;;;;;;;14.21;50.54;95655.88;5010133;28;101891;-64
2022/04/19 12:16:03;;;;;;;5.70;4.50;;;;;;;14.11;50.55;95660.56;5010128;28;105134;-64
2022/04/19 12:18:34;;;;;;;7.23;5.27;;;;;;;14.15;50.25;95653.50;5011087;28;103060;-64
2022/04/19 12:21:02;;;;;;;7.70;5.50;;;;;;;13.81;51.07;95653.75;5009718;28;101851;-64